sensor_id;sensor_type;location;lat;lon;timestamp;pressure;altitude;pressure_sealevel;temperature;humidity
7109;BME280;29079;41.930;25.558;2024-03-08T00:02:32;99758.53;;;5.71;100.00
7109;BME280;29079;41.930;25.558;2024-03-08T00:05:20;99757.88;;;6.22;100.00
7109;BME280;29079;41.930;25.558;2024-03-08T00:08:09;99756.78;;;6.24;100.00
7109;BME280;29079;41.930;25.558;2024-03-08T00:10:57;99735.88;;;6.07;100.00
7109;BME280;29079;41.930;25.558;2024-03-08T00:13:46;99751.28;;;5.46;100.00
7109;BME280;29079;41.930;25.558;2024-03-08T00:16:34;99759.81;;;6.05;100.00
7109;BME280;29079;41.930;25.558;2024-03-08T00:19:22;99759.63;;;6.08;100.00
7109;BME280;29079;41.930;25.558;2024-03-08T00:22:10;99752.00;;;6.17;100.00
7109;BME280;29079;41.930;25.558;2024-03-08T00:24:59;99737.34;;;5.84;100.00
7109;BME280;29079;41.930;25.558;2024-03-08T00:27:48;99752.41;;;5.56;100.00
7109;BME280;29079;41.930;25.558;2024-03-08T00:30:36;99748.66;;;5.46;100.00
7109;BME280;29079;41.930;25.558;2024-03-08T00:33:24;99754.84;;;5.32;100.00
7109;BME280;29079;41.930;25.558;2024-03-08T00:36:14;99751.28;;;5.46;100.00
7109;BME280;29079;41.930;25.558;2024-03-08T00:39:02;99703.50;;;5.34;100.00
7109;BME280;29079;41.930;25.558;2024-03-08T00:41:54;99749.56;;;5.59;100.00
7109;BME280;29079;41.930;25.558;2024-03-08T00:44:42;99749.16;;;5.38;100.00
7109;BME280;29079;41.930;25.558;2024-03-08T00:47:30;99746.97;;;5.45;100.00
7109;BME280;29079;41.930;25.558;2024-03-08T00:50:18;99764.16;;;5.52;100.00
7109;BME280;29079;41.930;25.558;2024-03-08T00:53:06;99752.84;;;6.04;100.00
7109;BME280;29079;41.930;25.558;2024-03-08T00:55:54;99758.53;;;5.84;100.00
7109;BME280;29079;41.930;25.558;2024-03-08T00:58:44;99760.75;;;5.77;100.00
7109;BME280;29079;41.930;25.558;2024-03-08T01:01:32;99759.44;;;6.12;100.00
7109;BME280;29079;41.930;25.558;2024-03-08T01:04:20;99753.75;;;5.76;100.00
7109;BME280;29079;41.930;25.558;2024-03-08T01:07:08;99727.78;;;5.41;100.00
7109;BME280;29079;41.930;25.558;2024-03-08T01:09:56;99751.41;;;5.44;100.00
7109;BME280;29079;41.930;25.558;2024-03-08T01:12:44;99744.19;;;5.19;100.00
7109;BME280;29079;41.930;25.558;2024-03-08T01:15:34;99755.19;;;5.40;100.00
7109;BME280;29079;41.930;25.558;2024-03-08T01:18:21;99746.06;;;5.58;100.00
7109;BME280;29079;41.930;25.558;2024-03-08T01:21:10;99733.19;;;5.25;100.00
7109;BME280;29079;41.930;25.558;2024-03-08T01:23:58;99739.47;;;5.51;100.00
7109;BME280;29079;41.930;25.558;2024-03-08T01:26:46;99746.81;;;5.33;100.00
7109;BME280;29079;41.930;25.558;2024-03-08T01:29:34;99749.16;;;5.23;100.00
7109;BME280;29079;41.930;25.558;2024-03-08T01:32:24;99751.41;;;5.30;100.00
7109;BME280;29079;41.930;25.558;2024-03-08T01:35:12;99748.06;;;5.55;100.00
7109;BME280;29079;41.930;25.558;2024-03-08T01:37:59;99750.16;;;5.50;100.00
7109;BME280;29079;41.930;25.558;2024-03-08T01:40:48;99753.69;;;5.63;100.00
7109;BME280;29079;41.930;25.558;2024-03-08T01:43:36;99752.91;;;5.75;100.00
7109;BME280;29079;41.930;25.558;2024-03-08T01:46:24;99748.03;;;5.69;100.00
7109;BME280;29079;41.930;25.558;2024-03-08T01:49:16;99761.41;;;5.53;100.00
7109;BME280;29079;41.930;25.558;2024-03-08T01:52:07;99730.19;;;5.58;100.00
7109;BME280;29079;41.930;25.558;2024-03-08T01:54:55;99751.41;;;5.71;100.00
7109;BME280;29079;41.930;25.558;2024-03-08T01:57:43;99759.06;;;5.34;100.00
7109;BME280;29079;41.930;25.558;2024-03-08T02:00:32;99743.69;;;5.27;100.00
7109;BME280;29079;41.930;25.558;2024-03-08T02:03:21;99745.44;;;5.55;100.00
7109;BME280;29079;41.930;25.558;2024-03-08T02:06:11;99752.09;;;5.88;100.00
7109;BME280;29079;41.930;25.558;2024-03-08T02:09:02;99756.97;;;5.81;100.00
7109;BME280;29079;41.930;25.558;2024-03-08T02:11:52;99742.75;;;5.69;100.00
7109;BME280;29079;41.930;25.558;2024-03-08T02:14:41;99754.63;;;5.77;100.00
7109;BME280;29079;41.930;25.558;2024-03-08T02:17:30;99758.53;;;5.29;100.00
7109;BME280;29079;41.930;25.558;2024-03-08T02:20:20;99740.81;;;5.71;100.00
7109;BME280;29079;41.930;25.558;2024-03-08T02:23:09;99758.44;;;5.72;100.00
7109;BME280;29079;41.930;25.558;2024-03-08T02:25:57;99717.44;;;5.51;100.00
7109;BME280;29079;41.930;25.558;2024-03-08T02:28:46;99753.94;;;5.46;100.00
7109;BME280;29079;41.930;25.558;2024-03-08T02:31:34;99753.41;;;5.40;100.00
7109;BME280;29079;41.930;25.558;2024-03-08T02:34:22;99756.50;;;5.74;100.00
7109;BME280;29079;41.930;25.558;2024-03-08T02:37:10;99738.63;;;5.78;100.00
7109;BME280;29079;41.930;25.558;2024-03-08T02:40:00;99753.50;;;5.66;100.00
7109;BME280;29079;41.930;25.558;2024-03-08T02:42:48;99755.66;;;5.47;100.00
7109;BME280;29079;41.930;25.558;2024-03-08T02:45:36;99753.19;;;5.44;100.00
7109;BME280;29079;41.930;25.558;2024-03-08T02:48:24;99752.31;;;5.85;100.00
7109;BME280;29079;41.930;25.558;2024-03-08T02:51:12;99743.63;;;5.55;100.00
7109;BME280;29079;41.930;25.558;2024-03-08T02:54:02;99719.56;;;5.31;100.00
7109;BME280;29079;41.930;25.558;2024-03-08T02:56:53;99654.78;;;4.53;100.00
7109;BME280;29079;41.930;25.558;2024-03-08T02:59:41;99754.56;;;5.22;100.00
7109;BME280;29079;41.930;25.558;2024-03-08T03:02:29;99741.91;;;5.27;100.00
7109;BME280;29079;41.930;25.558;2024-03-08T03:05:17;99752.19;;;5.59;100.00
7109;BME280;29079;41.930;25.558;2024-03-08T03:08:06;99752.25;;;5.45;100.00
7109;BME280;29079;41.930;25.558;2024-03-08T03:10:59;99749.25;;;5.36;100.00
7109;BME280;29079;41.930;25.558;2024-03-08T03:13:49;99743.53;;;5.57;100.00
7109;BME280;29079;41.930;25.558;2024-03-08T03:16:37;99751.00;;;5.78;100.00
7109;BME280;29079;41.930;25.558;2024-03-08T03:19:25;99736.97;;;5.21;100.00
7109;BME280;29079;41.930;25.558;2024-03-08T03:22:14;99754.63;;;5.35;100.00
7109;BME280;29079;41.930;25.558;2024-03-08T03:25:03;99702.56;;;5.21;100.00
7109;BME280;29079;41.930;25.558;2024-03-08T03:27:54;99749.84;;;5.54;100.00
7109;BME280;29079;41.930;25.558;2024-03-08T03:30:46;99741.84;;;5.41;100.00
7109;BME280;29079;41.930;25.558;2024-03-08T03:33:34;99758.03;;;5.37;100.00
7109;BME280;29079;41.930;25.558;2024-03-08T03:36:24;99754.50;;;5.51;100.00
7109;BME280;29079;41.930;25.558;2024-03-08T03:39:12;99763.13;;;5.40;100.00
7109;BME280;29079;41.930;25.558;2024-03-08T03:42:03;99743.97;;;5.36;100.00
7109;BME280;29079;41.930;25.558;2024-03-08T03:44:51;99745.50;;;5.26;100.00
7109;BME280;29079;41.930;25.558;2024-03-08T03:47:42;99763.78;;;5.44;100.00
7109;BME280;29079;41.930;25.558;2024-03-08T03:50:30;99766.66;;;5.26;100.00
7109;BME280;29079;41.930;25.558;2024-03-08T03:53:21;99765.38;;;5.61;100.00
7109;BME280;29079;41.930;25.558;2024-03-08T03:56:10;99762.88;;;5.57;100.00
7109;BME280;29079;41.930;25.558;2024-03-08T03:58:58;99759.25;;;5.31;100.00
7109;BME280;29079;41.930;25.558;2024-03-08T04:01:46;99773.47;;;5.30;100.00
7109;BME280;29079;41.930;25.558;2024-03-08T04:04:37;99766.38;;;5.31;100.00
7109;BME280;29079;41.930;25.558;2024-03-08T04:07:25;99773.97;;;5.50;100.00
7109;BME280;29079;41.930;25.558;2024-03-08T04:10:13;99778.22;;;5.52;100.00
7109;BME280;29079;41.930;25.558;2024-03-08T04:13:01;99773.16;;;5.35;100.00
7109;BME280;29079;41.930;25.558;2024-03-08T04:15:50;99777.03;;;5.29;100.00
7109;BME280;29079;41.930;25.558;2024-03-08T04:18:38;99774.41;;;5.29;100.00
7109;BME280;29079;41.930;25.558;2024-03-08T04:21:29;99782.41;;;5.42;100.00
7109;BME280;29079;41.930;25.558;2024-03-08T04:24:18;99783.47;;;5.25;100.00
7109;BME280;29079;41.930;25.558;2024-03-08T04:27:06;99780.28;;;5.20;100.00
7109;BME280;29079;41.930;25.558;2024-03-08T04:29:54;99782.97;;;5.33;100.00
7109;BME280;29079;41.930;25.558;2024-03-08T04:32:43;99791.19;;;5.43;100.00
7109;BME280;29079;41.930;25.558;2024-03-08T04:35:32;99785.63;;;5.18;100.00
7109;BME280;29079;41.930;25.558;2024-03-08T04:38:21;99790.81;;;5.34;100.00
7109;BME280;29079;41.930;25.558;2024-03-08T04:41:09;99774.81;;;5.09;100.00
7109;BME280;29079;41.930;25.558;2024-03-08T04:43:58;99792.19;;;5.27;100.00
7109;BME280;29079;41.930;25.558;2024-03-08T04:46:45;99788.03;;;5.09;100.00
7109;BME280;29079;41.930;25.558;2024-03-08T04:49:34;99793.47;;;5.34;100.00
7109;BME280;29079;41.930;25.558;2024-03-08T04:52:21;99801.06;;;5.12;100.00
7109;BME280;29079;41.930;25.558;2024-03-08T04:55:11;99788.88;;;4.95;100.00
7109;BME280;29079;41.930;25.558;2024-03-08T04:57:59;99804.84;;;5.08;100.00
7109;BME280;29079;41.930;25.558;2024-03-08T05:00:47;99805.50;;;5.11;100.00
7109;BME280;29079;41.930;25.558;2024-03-08T05:03:35;99805.66;;;5.37;100.00
7109;BME280;29079;41.930;25.558;2024-03-08T05:06:25;99809.53;;;5.02;100.00
7109;BME280;29079;41.930;25.558;2024-03-08T05:09:13;99817.38;;;5.18;100.00
7109;BME280;29079;41.930;25.558;2024-03-08T05:12:03;99820.41;;;5.12;100.00
7109;BME280;29079;41.930;25.558;2024-03-08T05:14:51;99813.34;;;4.84;100.00
7109;BME280;29079;41.930;25.558;2024-03-08T05:17:40;99821.84;;;5.18;100.00
7109;BME280;29079;41.930;25.558;2024-03-08T05:20:28;99814.47;;;5.09;100.00
7109;BME280;29079;41.930;25.558;2024-03-08T05:23:17;99826.09;;;4.92;100.00
7109;BME280;29079;41.930;25.558;2024-03-08T05:26:08;99839.91;;;4.97;100.00
7109;BME280;29079;41.930;25.558;2024-03-08T05:28:58;99844.44;;;5.23;100.00
7109;BME280;29079;41.930;25.558;2024-03-08T05:31:47;99847.47;;;5.32;100.00
7109;BME280;29079;41.930;25.558;2024-03-08T05:34:39;99802.47;;;4.74;100.00
7109;BME280;29079;41.930;25.558;2024-03-08T05:37:27;99857.47;;;5.27;100.00
7109;BME280;29079;41.930;25.558;2024-03-08T05:40:17;99854.59;;;5.73;100.00
7109;BME280;29079;41.930;25.558;2024-03-08T05:43:09;99854.50;;;5.74;100.00
7109;BME280;29079;41.930;25.558;2024-03-08T05:45:59;99858.78;;;5.63;100.00
7109;BME280;29079;41.930;25.558;2024-03-08T05:48:47;99856.13;;;5.05;100.00
7109;BME280;29079;41.930;25.558;2024-03-08T05:51:37;99855.84;;;5.24;100.00
7109;BME280;29079;41.930;25.558;2024-03-08T05:54:26;99864.56;;;4.67;100.00
7109;BME280;29079;41.930;25.558;2024-03-08T05:57:14;99855.97;;;4.63;100.00
7109;BME280;29079;41.930;25.558;2024-03-08T06:00:04;99858.00;;;4.88;100.00
7109;BME280;29079;41.930;25.558;2024-03-08T06:02:54;99849.81;;;5.08;100.00
7109;BME280;29079;41.930;25.558;2024-03-08T06:05:42;99876.09;;;5.54;100.00
7109;BME280;29079;41.930;25.558;2024-03-08T06:08:30;99877.31;;;5.48;100.00
7109;BME280;29079;41.930;25.558;2024-03-08T06:11:19;99884.72;;;5.29;100.00
7109;BME280;29079;41.930;25.558;2024-03-08T06:14:07;99890.63;;;5.03;100.00
7109;BME280;29079;41.930;25.558;2024-03-08T06:16:55;99874.69;;;5.34;100.00
7109;BME280;29079;41.930;25.558;2024-03-08T06:19:45;99888.28;;;5.28;100.00
7109;BME280;29079;41.930;25.558;2024-03-08T06:22:33;99893.94;;;5.65;100.00
7109;BME280;29079;41.930;25.558;2024-03-08T06:25:21;99881.19;;;5.43;100.00
7109;BME280;29079;41.930;25.558;2024-03-08T06:28:09;99902.84;;;5.49;100.00
7109;BME280;29079;41.930;25.558;2024-03-08T06:30:57;99906.72;;;5.29;100.00
7109;BME280;29079;41.930;25.558;2024-03-08T06:33:45;99912.38;;;5.23;100.00
7109;BME280;29079;41.930;25.558;2024-03-08T06:36:37;99914.00;;;5.40;100.00
7109;BME280;29079;41.930;25.558;2024-03-08T06:39:25;99900.84;;;5.38;100.00
7109;BME280;29079;41.930;25.558;2024-03-08T06:42:13;99922.41;;;5.47;100.00
7109;BME280;29079;41.930;25.558;2024-03-08T06:45:02;99920.81;;;5.58;100.00
7109;BME280;29079;41.930;25.558;2024-03-08T06:47:52;99925.19;;;5.00;100.00
7109;BME280;29079;41.930;25.558;2024-03-08T06:50:41;99927.72;;;5.47;100.00
7109;BME280;29079;41.930;25.558;2024-03-08T06:53:31;99930.56;;;5.44;100.00
7109;BME280;29079;41.930;25.558;2024-03-08T06:56:19;99932.44;;;5.56;100.00
7109;BME280;29079;41.930;25.558;2024-03-08T06:59:07;99938.72;;;5.10;100.00
7109;BME280;29079;41.930;25.558;2024-03-08T07:01:59;99945.25;;;5.19;100.00
7109;BME280;29079;41.930;25.558;2024-03-08T07:04:47;99928.44;;;5.05;100.00
7109;BME280;29079;41.930;25.558;2024-03-08T07:07:37;99940.72;;;5.21;100.00
7109;BME280;29079;41.930;25.558;2024-03-08T07:10:26;99945.00;;;4.93;100.00
7109;BME280;29079;41.930;25.558;2024-03-08T07:13:15;99947.13;;;5.17;100.00
7109;BME280;29079;41.930;25.558;2024-03-08T07:16:04;99945.66;;;5.27;100.00
7109;BME280;29079;41.930;25.558;2024-03-08T07:18:54;99947.13;;;5.17;100.00
7109;BME280;29079;41.930;25.558;2024-03-08T07:21:42;99742.88;;;4.24;100.00
7109;BME280;29079;41.930;25.558;2024-03-08T07:24:30;99937.28;;;5.49;100.00
7109;BME280;29079;41.930;25.558;2024-03-08T07:27:37;99944.72;;;5.43;100.00
7109;BME280;29079;41.930;25.558;2024-03-08T07:30:27;99943.19;;;5.38;100.00
7109;BME280;29079;41.930;25.558;2024-03-08T07:33:32;99955.84;;;5.19;100.00
7109;BME280;29079;41.930;25.558;2024-03-08T07:36:20;99952.97;;;5.08;100.00
7109;BME280;29079;41.930;25.558;2024-03-08T07:39:09;99957.06;;;5.13;100.00
7109;BME280;29079;41.930;25.558;2024-03-08T07:41:58;99950.78;;;5.30;100.00
7109;BME280;29079;41.930;25.558;2024-03-08T07:44:48;99930.72;;;5.26;100.00
7109;BME280;29079;41.930;25.558;2024-03-08T07:47:37;99950.59;;;5.62;100.00
7109;BME280;29079;41.930;25.558;2024-03-08T07:50:25;99948.16;;;5.45;100.00
7109;BME280;29079;41.930;25.558;2024-03-08T07:53:13;99953.03;;;5.36;100.00
7109;BME280;29079;41.930;25.558;2024-03-08T07:56:01;99954.75;;;5.66;100.00
7109;BME280;29079;41.930;25.558;2024-03-08T07:58:51;99902.22;;;5.01;100.00
7109;BME280;29079;41.930;25.558;2024-03-08T08:01:41;99967.84;;;5.10;100.00
7109;BME280;29079;41.930;25.558;2024-03-08T08:04:31;99946.59;;;5.26;100.00
7109;BME280;29079;41.930;25.558;2024-03-08T08:07:19;99967.41;;;5.47;100.00
7109;BME280;29079;41.930;25.558;2024-03-08T08:10:09;99954.75;;;5.37;100.00
7109;BME280;29079;41.930;25.558;2024-03-08T08:13:03;99961.75;;;5.67;100.00
7109;BME280;29079;41.930;25.558;2024-03-08T08:15:52;99967.81;;;5.40;100.00
7109;BME280;29079;41.930;25.558;2024-03-08T08:18:41;99976.28;;;5.31;100.00
7109;BME280;29079;41.930;25.558;2024-03-08T08:21:30;99974.59;;;5.30;100.00
7109;BME280;29079;41.930;25.558;2024-03-08T08:24:19;99968.28;;;5.62;100.00
7109;BME280;29079;41.930;25.558;2024-03-08T08:27:08;99944.53;;;5.60;100.00
7109;BME280;29079;41.930;25.558;2024-03-08T08:29:58;99970.28;;;5.58;100.00
7109;BME280;29079;41.930;25.558;2024-03-08T08:32:46;99978.38;;;5.84;100.00
7109;BME280;29079;41.930;25.558;2024-03-08T08:35:37;99968.31;;;5.17;100.00
7109;BME280;29079;41.930;25.558;2024-03-08T08:38:25;99980.06;;;5.27;100.00
7109;BME280;29079;41.930;25.558;2024-03-08T08:41:13;99977.44;;;5.56;100.00
7109;BME280;29079;41.930;25.558;2024-03-08T08:44:03;99987.69;;;5.77;100.00
7109;BME280;29079;41.930;25.558;2024-03-08T08:46:59;99992.00;;;5.63;100.00
7109;BME280;29079;41.930;25.558;2024-03-08T08:49:58;99998.53;;;5.57;100.00
7109;BME280;29079;41.930;25.558;2024-03-08T08:52:49;99978.97;;;5.60;100.00
7109;BME280;29079;41.930;25.558;2024-03-08T08:55:39;99985.66;;;5.51;100.00
7109;BME280;29079;41.930;25.558;2024-03-08T08:58:28;99940.34;;;5.13;100.00
7109;BME280;29079;41.930;25.558;2024-03-08T09:01:16;99995.44;;;5.80;100.00
7109;BME280;29079;41.930;25.558;2024-03-08T09:04:05;99979.81;;;5.75;100.00
7109;BME280;29079;41.930;25.558;2024-03-08T09:06:54;99978.03;;;5.61;100.00
7109;BME280;29079;41.930;25.558;2024-03-08T09:09:45;99999.28;;;5.45;100.00
7109;BME280;29079;41.930;25.558;2024-03-08T09:12:33;99989.25;;;5.65;100.00
7109;BME280;29079;41.930;25.558;2024-03-08T09:15:21;99946.97;;;5.20;100.00
7109;BME280;29079;41.930;25.558;2024-03-08T09:18:09;100005.22;;;5.49;100.00
7109;BME280;29079;41.930;25.558;2024-03-08T09:20:57;99997.53;;;5.30;100.00
7109;BME280;29079;41.930;25.558;2024-03-08T09:23:46;99999.66;;;5.39;100.00
7109;BME280;29079;41.930;25.558;2024-03-08T09:26:35;99888.69;;;4.77;100.00
7109;BME280;29079;41.930;25.558;2024-03-08T09:29:24;99961.53;;;5.27;100.00
7109;BME280;29079;41.930;25.558;2024-03-08T09:32:12;99973.00;;;5.42;100.00
7109;BME280;29079;41.930;25.558;2024-03-08T09:35:00;99996.44;;;5.48;100.00
7109;BME280;29079;41.930;25.558;2024-03-08T09:37:49;100010.19;;;5.55;100.00
7109;BME280;29079;41.930;25.558;2024-03-08T09:40:38;100012.03;;;5.53;100.00
7109;BME280;29079;41.930;25.558;2024-03-08T09:43:30;100008.25;;;5.43;100.00
7109;BME280;29079;41.930;25.558;2024-03-08T09:46:19;100005.00;;;5.23;100.00
7109;BME280;29079;41.930;25.558;2024-03-08T09:49:10;100013.31;;;5.31;100.00
7109;BME280;29079;41.930;25.558;2024-03-08T09:51:58;100008.47;;;5.54;100.00
7109;BME280;29079;41.930;25.558;2024-03-08T09:54:47;99948.94;;;5.16;100.00
7109;BME280;29079;41.930;25.558;2024-03-08T09:57:36;99998.34;;;5.46;100.00
7109;BME280;29079;41.930;25.558;2024-03-08T10:00:26;99997.22;;;5.65;100.00
7109;BME280;29079;41.930;25.558;2024-03-08T10:03:14;99963.06;;;5.46;100.00
7109;BME280;29079;41.930;25.558;2024-03-08T10:06:02;99985.78;;;5.79;100.00
7109;BME280;29079;41.930;25.558;2024-03-08T10:08:52;99992.50;;;5.84;100.00
7109;BME280;29079;41.930;25.558;2024-03-08T10:11:40;99992.22;;;5.74;100.00
7109;BME280;29079;41.930;25.558;2024-03-08T10:14:29;99998.19;;;5.78;100.00
7109;BME280;29079;41.930;25.558;2024-03-08T10:17:19;99989.75;;;5.86;100.00
7109;BME280;29079;41.930;25.558;2024-03-08T10:20:14;99988.44;;;5.79;100.00
7109;BME280;29079;41.930;25.558;2024-03-08T10:23:03;99995.38;;;6.10;100.00
7109;BME280;29079;41.930;25.558;2024-03-08T10:25:57;99988.97;;;5.84;100.00
7109;BME280;29079;41.930;25.558;2024-03-08T10:28:46;99996.84;;;6.14;100.00
7109;BME280;29079;41.930;25.558;2024-03-08T10:31:37;99967.81;;;5.98;100.00
7109;BME280;29079;41.930;25.558;2024-03-08T10:34:27;99997.63;;;6.16;100.00
7109;BME280;29079;41.930;25.558;2024-03-08T10:37:21;100000.09;;;6.05;100.00
7109;BME280;29079;41.930;25.558;2024-03-08T10:40:16;99994.75;;;5.90;100.00
7109;BME280;29079;41.930;25.558;2024-03-08T10:43:06;99947.28;;;5.87;100.00
7109;BME280;29079;41.930;25.558;2024-03-08T10:46:07;99995.38;;;6.10;100.00
7109;BME280;29079;41.930;25.558;2024-03-08T10:49:00;99989.59;;;6.03;100.00
7109;BME280;29079;41.930;25.558;2024-03-08T10:51:53;99992.31;;;6.16;100.00
7109;BME280;29079;41.930;25.558;2024-03-08T10:54:43;99986.19;;;6.01;100.00
7109;BME280;29079;41.930;25.558;2024-03-08T10:57:31;99991.56;;;6.00;100.00
7109;BME280;29079;41.930;25.558;2024-03-08T11:00:20;99970.00;;;5.91;100.00
7109;BME280;29079;41.930;25.558;2024-03-08T11:03:43;99951.50;;;6.33;100.00
7109;BME280;29079;41.930;25.558;2024-03-08T11:06:41;99984.16;;;6.34;100.00
7109;BME280;29079;41.930;25.558;2024-03-08T11:09:35;99976.44;;;6.16;100.00
7109;BME280;29079;41.930;25.558;2024-03-08T11:12:26;99975.72;;;6.27;100.00
7109;BME280;29079;41.930;25.558;2024-03-08T11:15:17;99958.44;;;6.49;100.00
7109;BME280;29079;41.930;25.558;2024-03-08T11:18:06;99904.19;;;6.13;100.00
7109;BME280;29079;41.930;25.558;2024-03-08T11:20:57;99949.41;;;6.66;100.00
7109;BME280;29079;41.930;25.558;2024-03-08T11:23:59;99971.44;;;6.66;100.00
7109;BME280;29079;41.930;25.558;2024-03-08T11:26:48;99963.34;;;6.55;100.00
7109;BME280;29079;41.930;25.558;2024-03-08T11:29:37;99963.69;;;6.36;100.00
7109;BME280;29079;41.930;25.558;2024-03-08T11:32:28;99871.59;;;5.83;100.00
7109;BME280;29079;41.930;25.558;2024-03-08T11:35:20;99975.88;;;6.53;100.00
7109;BME280;29079;41.930;25.558;2024-03-08T11:38:10;99971.59;;;6.50;100.00
7109;BME280;29079;41.930;25.558;2024-03-08T11:40:59;99962.59;;;6.53;100.00
7109;BME280;29079;41.930;25.558;2024-03-08T11:44:01;99975.97;;;6.51;100.00
7109;BME280;29079;41.930;25.558;2024-03-08T11:46:52;99964.09;;;6.97;100.00
7109;BME280;29079;41.930;25.558;2024-03-08T11:49:40;99972.22;;;6.81;100.00
7109;BME280;29079;41.930;25.558;2024-03-08T11:52:30;99965.78;;;6.85;100.00
7109;BME280;29079;41.930;25.558;2024-03-08T11:55:19;99973.00;;;6.56;100.00
7109;BME280;29079;41.930;25.558;2024-03-08T11:58:07;99972.84;;;6.72;100.00
7109;BME280;29079;41.930;25.558;2024-03-08T12:01:04;99934.56;;;6.49;100.00
7109;BME280;29079;41.930;25.558;2024-03-08T12:03:53;99970.47;;;6.82;100.00
7109;BME280;29079;41.930;25.558;2024-03-08T12:06:41;99966.75;;;6.57;100.00
7109;BME280;29079;41.930;25.558;2024-03-08T12:09:29;99972.81;;;6.59;100.00
7109;BME280;29079;41.930;25.558;2024-03-08T12:12:17;99964.75;;;6.60;100.00
7109;BME280;29079;41.930;25.558;2024-03-08T12:15:06;99964.06;;;6.71;100.00
7109;BME280;29079;41.930;25.558;2024-03-08T12:17:56;99974.34;;;6.76;100.00
7109;BME280;29079;41.930;25.558;2024-03-08T12:20:44;99975.41;;;6.73;100.00
7109;BME280;29079;41.930;25.558;2024-03-08T12:23:37;99972.34;;;6.79;100.00
7109;BME280;29079;41.930;25.558;2024-03-08T12:26:26;99971.25;;;6.69;100.00
7109;BME280;29079;41.930;25.558;2024-03-08T12:29:19;99972.22;;;6.68;100.00
7109;BME280;29079;41.930;25.558;2024-03-08T12:32:09;99962.50;;;6.54;100.00
7109;BME280;29079;41.930;25.558;2024-03-08T12:34:59;99962.28;;;6.57;100.00
7109;BME280;29079;41.930;25.558;2024-03-08T12:37:49;99968.38;;;6.72;100.00
7109;BME280;29079;41.930;25.558;2024-03-08T12:40:38;99969.88;;;6.76;100.00
7109;BME280;29079;41.930;25.558;2024-03-08T12:43:28;99965.56;;;6.75;100.00
7109;BME280;29079;41.930;25.558;2024-03-08T12:46:19;99950.44;;;6.63;100.00
7109;BME280;29079;41.930;25.558;2024-03-08T12:49:08;99968.94;;;6.77;100.00
7109;BME280;29079;41.930;25.558;2024-03-08T12:51:59;99958.28;;;6.92;100.00
7109;BME280;29079;41.930;25.558;2024-03-08T12:54:47;99964.84;;;6.86;100.00
7109;BME280;29079;41.930;25.558;2024-03-08T12:57:36;99964.88;;;6.99;100.00
7109;BME280;29079;41.930;25.558;2024-03-08T13:00:24;99964.81;;;7.13;100.00
7109;BME280;29079;41.930;25.558;2024-03-08T13:03:13;99969.03;;;7.03;100.00
7109;BME280;29079;41.930;25.558;2024-03-08T13:06:01;99959.28;;;6.76;100.00
7109;BME280;29079;41.930;25.558;2024-03-08T13:08:50;99966.53;;;6.87;100.00
7109;BME280;29079;41.930;25.558;2024-03-08T13:11:40;99925.63;;;6.64;100.00
7109;BME280;29079;41.930;25.558;2024-03-08T13:14:29;99955.78;;;7.16;100.00
7109;BME280;29079;41.930;25.558;2024-03-08T13:17:18;99964.22;;;6.95;100.00
7109;BME280;29079;41.930;25.558;2024-03-08T13:20:07;99942.78;;;6.86;100.00
7109;BME280;29079;41.930;25.558;2024-03-08T13:23:05;99948.28;;;6.83;100.00
7109;BME280;29079;41.930;25.558;2024-03-08T13:25:56;99956.63;;;6.76;100.00
7109;BME280;29079;41.930;25.558;2024-03-08T13:28:47;99950.72;;;6.86;100.00
7109;BME280;29079;41.930;25.558;2024-03-08T13:31:40;99949.97;;;6.84;100.00
7109;BME280;29079;41.930;25.558;2024-03-08T13:34:28;99918.75;;;6.74;100.00
7109;BME280;29079;41.930;25.558;2024-03-08T13:37:18;99936.09;;;6.93;100.00
7109;BME280;29079;41.930;25.558;2024-03-08T13:40:07;99937.47;;;6.86;100.00
7109;BME280;29079;41.930;25.558;2024-03-08T13:43:01;99946.63;;;7.07;100.00
7109;BME280;29079;41.930;25.558;2024-03-08T13:45:50;99950.31;;;6.92;100.00
7109;BME280;29079;41.930;25.558;2024-03-08T13:48:39;99954.53;;;6.82;100.00
7109;BME280;29079;41.930;25.558;2024-03-08T13:51:28;99921.19;;;6.77;100.00
7109;BME280;29079;41.930;25.558;2024-03-08T13:54:17;99930.03;;;6.91;100.00
7109;BME280;29079;41.930;25.558;2024-03-08T13:57:05;99955.94;;;6.87;100.00
7109;BME280;29079;41.930;25.558;2024-03-08T13:59:55;99940.34;;;7.08;100.00
7109;BME280;29079;41.930;25.558;2024-03-08T14:02:43;99939.66;;;7.19;100.00
7109;BME280;29079;41.930;25.558;2024-03-08T14:05:31;99941.00;;;6.99;100.00
7109;BME280;29079;41.930;25.558;2024-03-08T14:08:22;99910.38;;;6.80;100.00
7109;BME280;29079;41.930;25.558;2024-03-08T14:11:11;99920.63;;;7.25;100.00
7109;BME280;29079;41.930;25.558;2024-03-08T14:14:00;99926.00;;;6.98;100.00
7109;BME280;29079;41.930;25.558;2024-03-08T14:16:49;99924.88;;;7.28;100.00
7109;BME280;29079;41.930;25.558;2024-03-08T14:19:41;99916.91;;;7.02;100.00
7109;BME280;29079;41.930;25.558;2024-03-08T14:22:29;99916.91;;;7.02;100.00
7109;BME280;29079;41.930;25.558;2024-03-08T14:25:18;99917.44;;;7.20;100.00
7109;BME280;29079;41.930;25.558;2024-03-08T14:28:06;99910.56;;;7.30;100.00
7109;BME280;29079;41.930;25.558;2024-03-08T14:30:54;99921.47;;;7.26;100.00
7109;BME280;29079;41.930;25.558;2024-03-08T14:33:44;99918.63;;;7.16;100.00
7109;BME280;29079;41.930;25.558;2024-03-08T14:36:36;99919.16;;;7.21;100.00
7109;BME280;29079;41.930;25.558;2024-03-08T14:39:24;99921.91;;;7.20;100.00
7109;BME280;29079;41.930;25.558;2024-03-08T14:42:15;99918.91;;;7.11;100.00
7109;BME280;29079;41.930;25.558;2024-03-08T14:45:04;99905.53;;;7.13;100.00
7109;BME280;29079;41.930;25.558;2024-03-08T14:47:52;99934.41;;;7.05;100.00
7109;BME280;29079;41.930;25.558;2024-03-08T14:50:42;99930.00;;;7.31;100.00
7109;BME280;29079;41.930;25.558;2024-03-08T14:53:31;99932.94;;;7.13;100.00
7109;BME280;29079;41.930;25.558;2024-03-08T14:56:20;99945.28;;;7.14;100.00
7109;BME280;29079;41.930;25.558;2024-03-08T14:59:07;99926.38;;;7.19;100.00